Oslo, MN

05:22 AM CDT on Augustus 05, 2015 (GMT -0500)
Grafton Municipal | | Change Station
CLOSE
Current Station
Airport
Location: Grafton,
Elevation: 823 ft
Nearby Weather Stations

Elev 823 ft 48.40 °N, 97.37 °W | Updated 7 minutes ago

Oop
Oop
52 °F
Feels Like 52 °F
N
4
Wind Veranderlik Wind from SO

Vandag
High -- | Low -- °F
--% Chance of Precip.
Yesterday
High -- | Low -- °F
Precip. -- in
6:08 AM 8:59 PM
Waning Gibbous, 68% visible
Druk 30.03 in
Sigbaarheid 10.0 myle
Wolke Oop
Dou-punt 52 °F
Humiditeit 100%
Rainfall 0.00 in
Snow Depth Not available.
UV 0 out of 12
Pollen 7.70 out of 12
Air Quality Not available.
Flu Activity Not available.
METAR KGAF 051015Z AUTO 13003KT 10SM CLR 11/11 A3003 RMK AO2

More Conditions Fewer Conditions

Druk 30.03 in
Sigbaarheid 10.0 myle
Wolke Oop
Dou-punt 52 °F
Humiditeit 100%
Rainfall 0.00 in
Snow Depth Not available.
UV 0 out of 12
Pollen 7.70 out of 12
Air Quality Not available.
Flu Activity Not available.
METAR KGAF 051015Z AUTO 13003KT 10SM CLR 11/11 A3003 RMK AO2

More Conditions Fewer Conditions

10-Day Weather Forecast

×

Almanac

Astronomy

Aug. 05, 2015 Rise Set
Ware Tyd
Civil Twilight
Nautical Twilight
Astronomical Twilight
Maan
Length Of Visible Light
Length of Day
Tomorrow will be .
, % of the Moon is Illuminated

Today's Extremes

State Highs State Lows

Community

WunderPhotos

Upload Photos

1,844,113 photos uploaded!

WunderBlogs® & News

Nearby

Air Quality

  Air Quality AQ Index Pollutant
Not available.

Snow Depth

Station Depth Elevation

Earthquake Activity

Stad Distance Mag. Time & Date
Minimum magnitude displayed is 2.5.

Coastal Water Temperatures

Plek Temperatuur

Stations

Nearby Weather Stations

Station Location Temp Wind afkoel Dou-punt Humiditeit Wind Precip. Elev Opdateer Type